createdAt,value
2022-12-04T00:01:27.886Z,1.11
2022-12-04T00:03:59.294Z,1.15
2022-12-04T00:06:27.644Z,1.21
2022-12-04T00:08:56.199Z,1.27
2022-12-04T00:11:28.041Z,1.31
2022-12-04T00:14:01.486Z,1.37
2022-12-04T00:16:32.887Z,1.43
2022-12-04T00:19:04.871Z,1.46
2022-12-04T00:21:35.569Z,1.48
2022-12-04T00:24:03.638Z,1.48
2022-12-04T00:26:31.523Z,1.50
2022-12-04T00:28:59.795Z,1.50
2022-12-04T00:31:29.359Z,1.46
2022-12-04T00:34:00.381Z,1.40
2022-12-04T00:36:30.057Z,1.37
2022-12-04T00:39:00.589Z,1.35
2022-12-04T00:41:30.438Z,1.32
2022-12-04T00:43:59.949Z,1.27
2022-12-04T00:46:28.679Z,1.21
2022-12-04T00:48:56.807Z,1.18
2022-12-04T00:51:25.361Z,1.15
2022-12-04T00:53:54.094Z,1.10
2022-12-04T00:56:25.246Z,1.05
2022-12-04T00:58:57.617Z,1.04
2022-12-04T01:01:26.378Z,1.01
2022-12-04T01:03:55.637Z,0.98
2022-12-04T01:06:26.440Z,0.95
2022-12-04T01:08:56.428Z,0.94
2022-12-04T01:11:28.276Z,0.95
2022-12-04T01:13:57.601Z,0.96
2022-12-04T01:16:30.756Z,0.98
2022-12-04T01:18:59.150Z,0.95
2022-12-04T01:21:27.129Z,0.96
2022-12-04T01:23:55.064Z,0.98
2022-12-04T01:26:23.163Z,1.00
2022-12-04T01:28:50.964Z,1.06
2022-12-04T01:31:20.924Z,1.11
2022-12-04T01:33:49.698Z,1.16
2022-12-04T01:36:22.342Z,1.19
2022-12-04T01:38:54.334Z,1.22
2022-12-04T01:41:25.937Z,1.20
2022-12-04T01:44:25.861Z,1.12
2022-12-04T01:46:55.766Z,1.03
2022-12-04T01:49:34.098Z,0.98
2022-12-04T01:52:20.085Z,0.93
2022-12-04T01:54:54.381Z,0.85
2022-12-04T01:57:25.334Z,0.78
2022-12-04T01:59:59.601Z,0.72
2022-12-04T02:02:32.916Z,0.67
2022-12-04T02:05:02.462Z,0.61
2022-12-04T02:07:31.682Z,0.57
2022-12-04T02:10:03.874Z,0.52
2022-12-04T02:12:56.136Z,0.49
2022-12-04T02:15:42.293Z,0.42
2022-12-04T02:18:29.246Z,0.37
2022-12-04T02:21:06.599Z,0.32
2022-12-04T02:23:57.864Z,0.27
2022-12-04T02:26:41.157Z,0.23
2022-12-04T02:29:30.018Z,0.22
2022-12-04T02:32:21.318Z,0.24
2022-12-04T02:34:59.117Z,0.26
2022-12-04T02:37:34.426Z,0.28
2022-12-04T02:40:09.918Z,0.30
2022-12-04T02:42:52.833Z,0.36
2022-12-04T02:45:26.257Z,0.44
2022-12-04T02:47:55.955Z,0.49
2022-12-04T02:50:24.509Z,0.55
2022-12-04T02:52:59.906Z,0.61
2022-12-04T02:55:37.041Z,0.64
2022-12-04T02:58:11.254Z,0.69
2022-12-04T03:00:42.017Z,0.71
2022-12-04T03:03:18.548Z,0.70
2022-12-04T03:05:57.946Z,0.69
2022-12-04T03:08:33.186Z,0.65
2022-12-04T03:11:02.101Z,0.62
2022-12-04T03:13:40.006Z,0.61
2022-12-04T03:16:14.413Z,0.61
2022-12-04T03:18:48.702Z,0.63
2022-12-04T03:21:21.517Z,0.66
2022-12-04T03:23:55.103Z,0.69
2022-12-04T03:26:32.639Z,0.69
2022-12-04T03:29:12.674Z,0.63
2022-12-04T03:31:50.404Z,0.59
2022-12-04T03:34:28.077Z,0.59
2022-12-04T03:37:02.437Z,0.59
2022-12-04T03:39:38.221Z,0.58
2022-12-04T03:42:15.267Z,0.57
2022-12-04T03:44:49.462Z,0.54
2022-12-04T03:47:34.100Z,0.52
2022-12-04T03:50:13.399Z,0.52
2022-12-04T03:52:52.763Z,0.55
2022-12-04T03:55:29.749Z,0.60
2022-12-04T03:58:06.689Z,0.68
2022-12-04T04:00:39.530Z,0.74
2022-12-04T04:03:13.222Z,0.81
2022-12-04T04:05:47.397Z,0.92
2022-12-04T04:08:26.874Z,1.02
2022-12-04T04:11:13.867Z,1.11
2022-12-04T04:14:03.762Z,1.21
2022-12-04T04:16:53.880Z,1.30
2022-12-04T04:19:34.026Z,1.38
2022-12-04T04:22:24.277Z,1.41
2022-12-04T04:25:05.687Z,1.39
2022-12-04T04:27:35.456Z,1.28
2022-12-04T04:30:04.233Z,1.19
2022-12-04T04:32:41.114Z,1.16
2022-12-04T04:35:37.219Z,1.13
2022-12-04T04:38:20.124Z,1.09
2022-12-04T04:41:00.343Z,1.04
2022-12-04T04:43:53.218Z,0.98
2022-12-04T04:46:29.010Z,0.90
2022-12-04T04:49:00.885Z,0.87
2022-12-04T04:51:31.106Z,0.85
2022-12-04T04:54:04.518Z,0.84
2022-12-04T04:56:32.337Z,0.80
2022-12-04T04:59:00.032Z,0.78
2022-12-04T05:01:28.810Z,0.76
2022-12-04T05:03:56.579Z,0.70
2022-12-04T05:06:24.341Z,0.64
2022-12-04T05:08:52.183Z,0.62
2022-12-04T05:11:19.937Z,0.60
2022-12-04T05:13:47.740Z,0.60
2022-12-04T05:16:16.680Z,0.64
2022-12-04T05:19:05.049Z,0.71
2022-12-04T05:21:34.157Z,0.78
2022-12-04T05:24:02.175Z,0.88
2022-12-04T05:26:30.043Z,0.98
2022-12-04T05:28:57.764Z,1.04
2022-12-04T05:31:25.692Z,1.12
2022-12-04T05:33:53.490Z,1.22
2022-12-04T05:36:21.513Z,1.29
2022-12-04T05:38:49.267Z,1.31
2022-12-04T05:41:17.014Z,1.30
2022-12-04T05:43:44.885Z,1.26
2022-12-04T05:46:12.731Z,1.24
2022-12-04T05:48:40.521Z,1.22
2022-12-04T05:51:10.642Z,1.19
2022-12-04T05:53:38.964Z,1.18
2022-12-04T05:56:07.693Z,1.19
2022-12-04T05:58:37.144Z,1.19
2022-12-04T06:01:11.623Z,1.16
2022-12-04T06:03:39.579Z,1.12
2022-12-04T06:06:24.795Z,1.08
2022-12-04T06:08:56.009Z,1.04
2022-12-04T06:11:27.201Z,1.00
2022-12-04T06:13:56.632Z,0.96
2022-12-04T06:16:29.744Z,0.95
2022-12-04T06:19:00.865Z,0.94
2022-12-04T06:21:32.181Z,0.89
2022-12-04T06:23:59.975Z,0.88
2022-12-04T06:26:28.299Z,0.93
2022-12-04T06:28:58.516Z,1.00
2022-12-04T06:31:28.983Z,1.10
2022-12-04T06:33:57.898Z,1.22
2022-12-04T06:36:26.307Z,1.33
2022-12-04T06:38:56.129Z,1.41
2022-12-04T06:41:26.227Z,1.48
2022-12-04T06:43:54.214Z,1.51
2022-12-04T06:46:25.242Z,1.58
2022-12-04T06:48:55.695Z,1.60
2022-12-04T06:51:26.466Z,1.65
2022-12-04T06:53:54.691Z,1.68
2022-12-04T06:56:26.028Z,1.68
2022-12-04T06:58:56.180Z,1.70
2022-12-04T07:01:27.430Z,1.75
2022-12-04T07:03:56.981Z,1.78
2022-12-04T07:06:29.569Z,1.82
2022-12-04T07:09:03.742Z,1.80
2022-12-04T07:11:32.742Z,1.82
2022-12-04T07:14:00.447Z,1.86
2022-12-04T07:16:35.333Z,1.86
2022-12-04T07:19:06.670Z,1.86
2022-12-04T07:21:34.848Z,1.82
2022-12-04T07:24:02.733Z,1.80
2022-12-04T07:26:30.955Z,1.84
2022-12-04T07:28:59.940Z,1.86
2022-12-04T07:31:29.480Z,1.87
2022-12-04T07:33:58.291Z,1.87
2022-12-04T07:36:26.988Z,1.83
2022-12-04T07:38:56.241Z,1.84
2022-12-04T07:41:24.583Z,1.90
2022-12-04T07:43:52.352Z,2.00
2022-12-04T07:46:24.079Z,2.09
2022-12-04T07:48:52.175Z,2.19
2022-12-04T07:51:22.954Z,2.32
2022-12-04T07:53:53.414Z,2.44
2022-12-04T07:56:21.822Z,2.58
2022-12-04T07:58:49.563Z,2.73
2022-12-04T08:01:21.711Z,2.86
2022-12-04T08:03:55.060Z,2.87
2022-12-04T08:06:24.952Z,2.89
2022-12-04T08:08:53.562Z,2.95
2022-12-04T08:11:23.797Z,2.99
2022-12-04T08:14:01.452Z,3.06
2022-12-04T08:16:31.232Z,3.15
2022-12-04T08:19:00.032Z,3.20
2022-12-04T08:21:30.464Z,3.21
2022-12-04T08:23:59.946Z,3.22
2022-12-04T08:26:30.283Z,3.23
2022-12-04T08:28:58.685Z,3.26
2022-12-04T08:31:29.536Z,3.28
2022-12-04T08:33:59.016Z,3.28
2022-12-04T08:36:27.288Z,3.30
2022-12-04T08:38:55.619Z,3.33
2022-12-04T08:41:26.045Z,3.38
2022-12-04T08:43:55.591Z,3.40
2022-12-04T08:46:25.941Z,3.43
2022-12-04T08:48:54.697Z,3.47
2022-12-04T08:51:25.199Z,3.53
2022-12-04T08:53:56.516Z,3.64
2022-12-04T08:56:25.795Z,3.77
2022-12-04T08:58:56.230Z,3.91
2022-12-04T09:01:26.003Z,4.04
2022-12-04T09:03:54.338Z,4.12
2022-12-04T09:06:22.993Z,4.19
2022-12-04T09:08:55.159Z,4.19
2022-12-04T09:11:26.003Z,4.26
2022-12-04T09:13:53.897Z,4.28
2022-12-04T09:16:24.115Z,4.43
2022-12-04T09:18:52.945Z,4.52
2022-12-04T09:21:22.626Z,4.64
2022-12-04T09:23:51.421Z,4.69
2022-12-04T09:26:24.906Z,4.70
2022-12-04T09:28:53.669Z,4.87
2022-12-04T09:31:23.673Z,4.99
2022-12-04T09:33:52.843Z,5.11
2022-12-04T09:36:24.218Z,5.19
2022-12-04T09:38:54.516Z,5.24
2022-12-04T09:41:40.160Z,5.31
2022-12-04T09:44:29.412Z,5.34
2022-12-04T09:47:02.887Z,5.48
2022-12-04T09:49:42.048Z,5.51
2022-12-04T09:52:26.657Z,5.55
2022-12-04T09:54:55.799Z,5.58
2022-12-04T09:57:35.143Z,5.58
2022-12-04T10:00:06.131Z,5.58
2022-12-04T10:02:41.632Z,5.61
2022-12-04T10:05:48.093Z,5.60
2022-12-04T10:08:38.405Z,5.58
2022-12-04T10:11:17.017Z,5.58
2022-12-04T10:14:03.372Z,5.59
2022-12-04T10:16:58.199Z,5.71
2022-12-04T10:19:42.091Z,5.93
2022-12-04T10:22:22.851Z,6.17
2022-12-04T10:24:55.506Z,6.43
2022-12-04T10:27:35.904Z,6.62
2022-12-04T10:30:21.878Z,6.85
2022-12-04T10:32:59.434Z,7.03
2022-12-04T10:35:30.682Z,7.07
2022-12-04T10:38:18.115Z,7.04
2022-12-04T10:40:51.102Z,7.09
2022-12-04T10:43:46.978Z,7.11
2022-12-04T10:46:30.223Z,7.22
2022-12-04T10:49:03.176Z,7.44
2022-12-04T10:51:39.797Z,7.63
2022-12-04T10:54:21.736Z,7.80
2022-12-04T10:56:54.539Z,7.93
2022-12-04T10:59:23.377Z,8.04
2022-12-04T11:02:04.647Z,8.11
2022-12-04T11:04:35.520Z,8.18
2022-12-04T11:07:15.920Z,8.26
2022-12-04T11:09:43.560Z,8.38
2022-12-04T11:12:21.896Z,8.53
2022-12-04T11:15:01.022Z,8.77
2022-12-04T11:17:32.085Z,8.97
2022-12-04T11:20:02.254Z,9.20
2022-12-04T11:22:31.215Z,9.24
2022-12-04T11:25:01.883Z,9.23
2022-12-04T11:27:33.545Z,9.34
2022-12-04T11:30:07.732Z,9.39
2022-12-04T11:32:36.469Z,9.12
2022-12-04T11:35:17.363Z,9.02
2022-12-04T11:37:55.804Z,8.91
2022-12-04T11:40:25.626Z,8.59
2022-12-04T11:43:14.796Z,8.33
2022-12-04T11:45:54.426Z,8.28
2022-12-04T11:48:22.721Z,8.12
2022-12-04T11:51:10.870Z,7.97
2022-12-04T11:53:59.547Z,7.98
2022-12-04T11:56:35.666Z,7.94
2022-12-04T11:59:22.121Z,7.96
2022-12-04T12:02:23.488Z,7.81
2022-12-04T12:05:14.159Z,7.79
2022-12-04T12:08:02.112Z,8.17
2022-12-04T12:10:45.730Z,7.83
2022-12-04T12:13:35.780Z,8.28
2022-12-04T12:16:16.321Z,8.86
2022-12-04T12:19:04.871Z,9.22
2022-12-04T12:21:49.863Z,9.62
2022-12-04T12:24:25.643Z,9.95
2022-12-04T12:27:14.035Z,10.21
2022-12-04T12:30:06.596Z,10.34
2022-12-04T12:33:06.246Z,10.44
2022-12-04T12:35:53.393Z,10.41
2022-12-04T12:38:26.760Z,10.41
2022-12-04T12:41:01.766Z,10.50
2022-12-04T12:43:39.832Z,10.67
2022-12-04T12:46:16.276Z,10.87
2022-12-04T12:48:58.749Z,10.87
2022-12-04T12:51:40.667Z,11.16
2022-12-04T12:54:23.239Z,11.36
2022-12-04T12:56:55.867Z,11.38
2022-12-04T12:59:27.260Z,11.44
2022-12-04T13:02:12.014Z,11.36
2022-12-04T13:04:43.692Z,11.38
2022-12-04T13:07:27.893Z,11.51
2022-12-04T13:10:07.725Z,11.62
2022-12-04T13:12:45.384Z,11.76
2022-12-04T13:15:16.029Z,11.95
2022-12-04T13:17:45.311Z,11.66
2022-12-04T13:20:21.114Z,11.41
2022-12-04T13:23:12.831Z,11.52
2022-12-04T13:25:59.601Z,11.64
2022-12-04T13:28:59.837Z,11.65
2022-12-04T13:31:45.383Z,11.52
2022-12-04T13:34:33.882Z,11.22
2022-12-04T13:37:18.115Z,11.08
2022-12-04T13:40:20.441Z,10.98
2022-12-04T13:42:48.333Z,10.77
2022-12-04T13:45:33.995Z,10.51
2022-12-04T13:48:03.487Z,10.02
2022-12-04T13:50:34.579Z,9.65
2022-12-04T13:53:02.872Z,9.41
2022-12-04T13:55:35.644Z,9.05
2022-12-04T13:58:28.832Z,8.60
2022-12-04T14:01:03.521Z,8.23
2022-12-04T14:03:39.463Z,7.86
2022-12-04T14:06:22.916Z,7.60
2022-12-04T14:08:58.364Z,7.34
2022-12-04T14:11:28.003Z,7.04
2022-12-04T14:14:03.464Z,6.80
2022-12-04T14:16:41.086Z,6.59
2022-12-04T14:19:27.680Z,6.31
2022-12-04T14:21:55.861Z,6.03
2022-12-04T14:24:39.399Z,5.79
2022-12-04T14:27:34.802Z,5.57
2022-12-04T14:30:03.269Z,5.42
2022-12-04T14:32:35.141Z,5.29
2022-12-04T14:35:03.654Z,5.19
2022-12-04T14:37:36.204Z,4.99
2022-12-04T14:40:07.426Z,4.87
2022-12-04T14:42:40.100Z,4.80
2022-12-04T14:45:29.193Z,4.68
2022-12-04T14:48:23.105Z,4.58
2022-12-04T14:51:04.975Z,4.48
2022-12-04T14:53:49.126Z,4.40
2022-12-04T14:56:40.515Z,4.32
2022-12-04T14:59:18.111Z,4.22
2022-12-04T15:01:48.290Z,4.17
2022-12-04T15:04:25.836Z,4.13
2022-12-04T15:06:59.889Z,4.08
2022-12-04T15:09:45.952Z,4.07
2022-12-04T15:12:34.122Z,4.06
2022-12-04T15:15:25.691Z,4.15
2022-12-04T15:18:14.897Z,4.22
2022-12-04T15:20:58.476Z,4.29
2022-12-04T15:23:36.320Z,4.36
2022-12-04T15:26:09.892Z,4.42
2022-12-04T15:28:46.704Z,4.46
2022-12-04T15:31:20.531Z,4.48
2022-12-04T15:33:51.859Z,4.47
2022-12-04T15:36:44.474Z,4.45
2022-12-04T15:39:19.045Z,4.39
2022-12-04T15:41:47.416Z,4.31
2022-12-04T15:44:30.066Z,4.27
2022-12-04T15:47:00.961Z,4.20
2022-12-04T15:49:30.969Z,4.13
2022-12-04T15:52:17.779Z,4.05
2022-12-04T15:55:01.053Z,3.96
2022-12-04T15:57:33.732Z,3.89
2022-12-04T16:00:05.145Z,3.84
2022-12-04T16:02:36.253Z,3.83
2022-12-04T16:05:27.689Z,3.82
2022-12-04T16:08:00.058Z,3.82
2022-12-04T16:10:32.073Z,3.81
2022-12-04T16:13:02.639Z,3.79
2022-12-04T16:15:40.580Z,3.77
2022-12-04T16:18:13.286Z,3.75
2022-12-04T16:20:41.424Z,3.77
2022-12-04T16:23:09.507Z,3.81
2022-12-04T16:25:37.308Z,3.86
2022-12-04T16:28:06.222Z,3.93
2022-12-04T16:30:35.825Z,4.01
2022-12-04T16:33:03.763Z,4.10
2022-12-04T16:35:31.573Z,4.20
2022-12-04T16:37:59.264Z,4.27
2022-12-04T16:40:27.053Z,4.34
2022-12-04T16:42:54.818Z,4.37
2022-12-04T16:45:27.641Z,4.40
2022-12-04T16:47:56.153Z,4.42
2022-12-04T16:50:24.994Z,4.47
2022-12-04T16:52:52.975Z,4.50
2022-12-04T16:55:28.121Z,4.54
2022-12-04T16:57:55.832Z,4.56
2022-12-04T17:00:24.167Z,4.57
2022-12-04T17:02:51.962Z,4.59
2022-12-04T17:05:25.773Z,4.61
2022-12-04T17:07:53.868Z,4.63
2022-12-04T17:10:24.176Z,4.65
2022-12-04T17:12:53.595Z,4.68
2022-12-04T17:15:22.234Z,4.71
2022-12-04T17:17:50.579Z,4.72
2022-12-04T17:20:20.891Z,4.73
2022-12-04T17:22:49.076Z,4.75
2022-12-04T17:25:17.736Z,4.79
2022-12-04T17:27:45.950Z,4.83
2022-12-04T17:30:14.496Z,4.87
2022-12-04T17:32:42.475Z,4.92
2022-12-04T17:35:12.283Z,4.98
2022-12-04T17:37:40.084Z,5.04
2022-12-04T17:40:10.465Z,5.11
2022-12-04T17:42:38.412Z,5.18
2022-12-04T17:45:07.045Z,5.27
2022-12-04T17:47:35.672Z,5.32
2022-12-04T17:50:06.141Z,5.35
2022-12-04T17:52:34.169Z,5.37
2022-12-04T17:55:01.800Z,5.36
2022-12-04T17:57:29.625Z,5.34
2022-12-04T17:59:57.447Z,5.31
2022-12-04T18:02:25.263Z,5.25
2022-12-04T18:04:56.493Z,5.23
2022-12-04T18:07:24.445Z,5.20
2022-12-04T18:09:52.131Z,5.17
2022-12-04T18:12:19.882Z,5.14
2022-12-04T18:14:49.906Z,5.09
2022-12-04T18:17:20.782Z,4.99
2022-12-04T18:19:48.567Z,4.87
2022-12-04T18:22:16.342Z,4.73
2022-12-04T18:24:44.131Z,4.60
2022-12-04T18:27:11.844Z,4.45
2022-12-04T18:29:39.814Z,4.27
2022-12-04T18:32:07.609Z,4.10
2022-12-04T18:34:35.375Z,3.95
2022-12-04T18:37:03.689Z,3.87
2022-12-04T18:39:31.525Z,3.82
2022-12-04T18:41:59.241Z,3.74
2022-12-04T18:44:27.130Z,3.68
2022-12-04T18:46:54.910Z,3.58
2022-12-04T18:49:22.753Z,3.46
2022-12-04T18:51:51.631Z,3.43
2022-12-04T18:54:22.255Z,3.45
2022-12-04T18:56:51.274Z,3.49
2022-12-04T18:59:22.474Z,3.52
2022-12-04T19:01:51.079Z,3.54
2022-12-04T19:04:20.936Z,3.43
2022-12-04T19:06:57.544Z,3.28
2022-12-04T19:09:54.337Z,3.33
2022-12-04T19:12:16.712Z,3.34
2022-12-04T19:14:45.023Z,3.35
2022-12-04T19:17:13.139Z,3.37
2022-12-04T19:19:40.943Z,3.40
2022-12-04T19:22:08.696Z,3.41
2022-12-04T19:24:36.469Z,3.37
2022-12-04T19:27:10.951Z,3.34
2022-12-04T19:29:40.042Z,3.32
2022-12-04T19:32:10.538Z,3.28
2022-12-04T19:34:38.441Z,3.24
2022-12-04T19:37:06.826Z,3.21
2022-12-04T19:39:34.496Z,3.17
2022-12-04T19:42:02.208Z,3.11
2022-12-04T19:47:18.629Z,2.99
2022-12-04T19:49:46.903Z,2.92
2022-12-04T19:52:15.203Z,2.82
2022-12-04T19:54:43.088Z,2.73
2022-12-04T19:57:10.802Z,2.64
2022-12-04T19:59:43.119Z,2.57
2022-12-04T20:02:14.162Z,2.51
2022-12-04T20:04:43.080Z,2.45
2022-12-04T20:07:11.579Z,2.41
2022-12-04T20:09:39.355Z,2.34
2022-12-04T20:12:07.388Z,2.31
2022-12-04T20:14:35.046Z,2.27
2022-12-04T20:17:04.009Z,2.18
2022-12-04T20:19:31.984Z,2.12
2022-12-04T20:22:00.081Z,2.11
2022-12-04T20:24:27.914Z,2.14
2022-12-04T20:26:55.692Z,2.15
2022-12-04T20:29:23.408Z,2.18
2022-12-04T20:31:51.100Z,2.18
2022-12-04T20:34:19.748Z,2.15
2022-12-04T20:36:49.252Z,2.19
2022-12-04T20:39:18.636Z,2.22
2022-12-04T20:41:46.368Z,2.26
2022-12-04T20:44:16.956Z,2.32
2022-12-04T20:46:45.399Z,2.35
2022-12-04T20:49:21.293Z,2.34
2022-12-04T20:51:51.731Z,2.29
2022-12-04T20:54:21.494Z,2.26
2022-12-04T20:56:52.016Z,2.21
2022-12-04T20:59:24.575Z,2.14
2022-12-04T21:01:53.057Z,2.07
2022-12-04T21:04:21.418Z,2.01
2022-12-04T21:06:52.028Z,1.96
2022-12-04T21:09:22.835Z,1.90
2022-12-04T21:11:53.072Z,1.86
2022-12-04T21:14:40.793Z,1.80
2022-12-04T21:17:13.066Z,1.76
2022-12-04T21:19:40.733Z,1.67
2022-12-04T21:22:08.507Z,1.61
2022-12-04T21:24:38.676Z,1.56
2022-12-04T21:27:09.072Z,1.52
2022-12-04T21:29:38.419Z,1.48
2022-12-04T21:32:07.203Z,1.46
2022-12-04T21:34:35.454Z,1.46
2022-12-04T21:37:03.115Z,1.47
2022-12-04T21:39:30.836Z,1.50
2022-12-04T21:42:12.158Z,1.55
2022-12-04T21:44:43.093Z,1.59
2022-12-04T21:47:11.168Z,1.65
2022-12-04T21:49:41.815Z,1.71
2022-12-04T21:52:09.733Z,1.75
2022-12-04T21:54:37.423Z,1.78
2022-12-04T21:57:05.214Z,1.82
2022-12-04T21:59:33.601Z,1.86
2022-12-04T22:02:02.217Z,1.89
2022-12-04T22:04:30.198Z,1.91
2022-12-04T22:06:58.123Z,1.92
2022-12-04T22:09:26.130Z,1.94
2022-12-04T22:11:53.994Z,1.93
2022-12-04T22:14:21.820Z,1.91
2022-12-04T22:16:51.984Z,1.86
2022-12-04T22:19:20.167Z,1.76
2022-12-04T22:21:48.443Z,1.64
2022-12-04T22:24:16.218Z,1.57
2022-12-04T22:26:44.025Z,1.52
2022-12-04T22:29:42.057Z,1.47
2022-12-04T22:31:59.406Z,1.41
2022-12-04T22:34:27.118Z,1.37
2022-12-04T22:36:54.848Z,1.31
2022-12-04T22:39:22.761Z,1.25
2022-12-04T22:41:50.463Z,1.19
2022-12-04T22:44:18.667Z,1.15
2022-12-04T22:46:46.759Z,1.12
2022-12-04T22:49:14.948Z,1.10
2022-12-04T22:51:42.553Z,1.09
2022-12-04T22:54:14.041Z,1.12
2022-12-04T22:56:44.171Z,1.15
2022-12-04T22:59:11.890Z,1.19
2022-12-04T23:01:39.624Z,1.24
2022-12-04T23:04:07.355Z,1.31
2022-12-04T23:06:35.741Z,1.37
2022-12-04T23:09:07.684Z,1.45
2022-12-04T23:11:36.529Z,1.53
2022-12-04T23:14:06.456Z,1.59
2022-12-04T23:16:36.014Z,1.64
2022-12-04T23:19:05.489Z,1.64
2022-12-04T23:21:34.007Z,1.66
2022-12-04T23:24:01.820Z,1.68
2022-12-04T23:26:32.672Z,1.72
2022-12-04T23:29:01.669Z,1.70
2022-12-04T23:31:30.734Z,1.66
2022-12-04T23:33:59.916Z,1.64
2022-12-04T23:36:27.830Z,1.62
2022-12-04T23:38:55.864Z,1.62
2022-12-04T23:41:26.975Z,1.57
2022-12-04T23:43:55.254Z,1.46
2022-12-04T23:46:30.244Z,1.34
2022-12-04T23:49:00.066Z,1.30
2022-12-04T23:51:28.122Z,1.22
2022-12-04T23:53:55.967Z,1.17
2022-12-04T23:56:26.296Z,1.16
2022-12-04T23:58:56.793Z,1.15
